createdAt,value
2019-05-07T00:00:32.783Z,6.10
2019-05-07T00:02:43.425Z,6.23
2019-05-07T00:04:54.303Z,6.70
2019-05-07T00:07:06.383Z,6.00
2019-05-07T00:09:17.341Z,6.70
2019-05-07T00:11:28.226Z,7.47
2019-05-07T00:13:39.056Z,7.03
2019-05-07T00:15:49.921Z,6.80
2019-05-07T00:18:02.990Z,6.37
2019-05-07T00:20:14.435Z,6.77
2019-05-07T00:22:27.231Z,6.80
2019-05-07T00:24:38.161Z,7.27
2019-05-07T00:26:49.117Z,6.33
2019-05-07T00:29:02.163Z,6.63
2019-05-07T00:31:12.826Z,7.13
2019-05-07T00:33:23.787Z,7.27
2019-05-07T00:35:45.691Z,7.13
2019-05-07T00:37:58.473Z,6.93
2019-05-07T00:40:22.413Z,6.50
2019-05-07T00:42:35.104Z,7.10
2019-05-07T00:45:14.275Z,7.40
2019-05-07T00:47:15.827Z,7.23
2019-05-07T00:49:27.853Z,7.17
2019-05-07T00:51:38.832Z,6.17
2019-05-07T00:53:51.919Z,6.77
2019-05-07T00:56:02.574Z,6.63
2019-05-07T00:58:13.529Z,7.17
2019-05-07T01:00:24.460Z,6.67
2019-05-07T01:02:35.325Z,6.87
2019-05-07T01:04:46.154Z,7.23
2019-05-07T01:06:56.997Z,6.70
2019-05-07T01:09:07.963Z,6.63
2019-05-07T01:11:18.891Z,7.50
2019-05-07T01:13:32.211Z,7.40
2019-05-07T01:15:43.120Z,7.50
2019-05-07T01:17:54.048Z,7.17
2019-05-07T01:20:05.388Z,7.40
2019-05-07T01:22:16.319Z,6.80
2019-05-07T01:24:27.275Z,7.07
2019-05-07T01:26:38.104Z,7.97
2019-05-07T01:28:58.149Z,7.43
2019-05-07T01:31:09.002Z,7.13
2019-05-07T01:33:24.854Z,6.93
2019-05-07T01:35:42.252Z,7.13
2019-05-07T01:37:52.849Z,7.27
2019-05-07T01:40:03.921Z,7.63
2019-05-07T01:42:14.753Z,12.03
2019-05-07T01:44:25.608Z,11.13
2019-05-07T01:46:36.459Z,10.50
2019-05-07T01:48:47.294Z,9.70
2019-05-07T01:50:58.443Z,10.40
2019-05-07T01:53:09.291Z,9.77
2019-05-07T01:55:22.403Z,9.30
2019-05-07T01:57:32.929Z,8.27
2019-05-07T01:59:43.813Z,8.60
2019-05-07T02:01:56.550Z,8.67
2019-05-07T02:04:15.399Z,7.70
2019-05-07T02:06:32.782Z,7.97
2019-05-07T02:08:57.777Z,8.73
2019-05-07T02:11:13.358Z,7.80
2019-05-07T02:13:24.199Z,7.87
2019-05-07T02:15:35.664Z,8.13
2019-05-07T02:17:46.498Z,8.30
2019-05-07T02:19:58.226Z,8.40
2019-05-07T02:22:09.083Z,7.63
2019-05-07T02:24:21.913Z,7.47
2019-05-07T02:26:32.865Z,7.70
2019-05-07T02:28:43.736Z,7.77
2019-05-07T02:30:54.567Z,7.60
2019-05-07T02:33:05.412Z,7.60
2019-05-07T02:35:16.370Z,7.93
2019-05-07T02:37:35.733Z,7.97
2019-05-07T02:39:44.454Z,8.23
2019-05-07T02:41:55.551Z,7.93
2019-05-07T02:44:06.425Z,8.33
2019-05-07T02:46:31.027Z,7.90
2019-05-07T02:48:43.085Z,8.03
2019-05-07T02:51:04.131Z,8.07
2019-05-07T02:53:25.515Z,8.00
2019-05-07T02:55:44.219Z,7.73
2019-05-07T02:57:55.171Z,8.07
2019-05-07T03:00:06.118Z,7.33
2019-05-07T03:02:16.971Z,7.73
2019-05-07T03:04:27.814Z,7.93
2019-05-07T03:06:38.755Z,8.20
2019-05-07T03:08:49.688Z,8.03
2019-05-07T03:11:03.326Z,8.27
2019-05-07T03:13:14.254Z,8.07
2019-05-07T03:15:25.224Z,8.20
2019-05-07T03:17:36.488Z,7.50
2019-05-07T03:19:49.243Z,8.20
2019-05-07T03:22:00.095Z,8.20
2019-05-07T03:24:14.036Z,8.10
2019-05-07T03:26:27.018Z,8.40
2019-05-07T03:28:42.294Z,8.63
2019-05-07T03:31:09.499Z,9.03
2019-05-07T03:33:36.154Z,8.27
2019-05-07T03:35:47.202Z,7.93
2019-05-07T03:37:58.549Z,8.67
2019-05-07T03:40:09.900Z,8.77
2019-05-07T03:42:23.431Z,8.20
2019-05-07T03:44:44.663Z,8.43
2019-05-07T03:47:02.338Z,8.40
2019-05-07T03:49:13.583Z,8.30
2019-05-07T03:51:23.889Z,11.27
2019-05-07T03:53:34.829Z,11.23
2019-05-07T03:55:45.659Z,12.70
2019-05-07T03:57:56.522Z,10.77
2019-05-07T04:00:08.381Z,11.57
2019-05-07T04:02:19.230Z,9.87
2019-05-07T04:04:33.017Z,9.90
2019-05-07T04:06:43.581Z,9.17
2019-05-07T04:08:54.589Z,9.40
2019-05-07T04:11:05.516Z,9.73
2019-05-07T04:13:16.376Z,9.37
2019-05-07T04:15:27.308Z,9.70
2019-05-07T04:17:38.254Z,9.77
2019-05-07T04:19:49.106Z,9.13
2019-05-07T04:21:59.942Z,8.67
2019-05-07T04:24:29.492Z,9.57
2019-05-07T04:26:53.657Z,7.37
2019-05-07T04:29:06.511Z,8.57
2019-05-07T04:31:17.522Z,9.50
2019-05-07T04:33:33.240Z,9.10
2019-05-07T04:35:48.069Z,8.87
2019-05-07T04:38:02.041Z,9.47
2019-05-07T04:40:13.498Z,8.83
2019-05-07T04:42:24.882Z,9.67
2019-05-07T04:44:38.996Z,9.73
2019-05-07T04:46:53.116Z,9.70
2019-05-07T04:49:03.724Z,9.00
2019-05-07T04:51:16.922Z,9.57
2019-05-07T04:53:27.860Z,8.17
2019-05-07T04:55:38.724Z,9.23
2019-05-07T04:57:49.575Z,9.57
2019-05-07T05:00:03.262Z,9.03
2019-05-07T05:02:15.116Z,8.50
2019-05-07T05:04:30.729Z,10.10
2019-05-07T05:06:38.714Z,8.53
2019-05-07T05:08:56.244Z,8.77
2019-05-07T05:11:06.127Z,9.93
2019-05-07T05:13:16.965Z,8.00
2019-05-07T05:15:28.034Z,9.30
2019-05-07T05:17:49.722Z,8.63
2019-05-07T05:19:52.520Z,9.30
2019-05-07T05:22:17.007Z,9.90
2019-05-07T05:24:38.869Z,9.53
2019-05-07T05:26:49.721Z,9.80
2019-05-07T05:29:02.428Z,9.60
2019-05-07T05:31:13.337Z,9.33
2019-05-07T05:33:24.194Z,9.57
2019-05-07T05:35:35.250Z,9.40
2019-05-07T05:37:46.101Z,9.10
2019-05-07T05:40:06.315Z,8.50
2019-05-07T05:42:11.898Z,9.07
2019-05-07T05:44:33.621Z,8.53
2019-05-07T05:46:44.495Z,8.90
2019-05-07T05:48:55.327Z,9.10
2019-05-07T05:51:28.765Z,8.37
2019-05-07T05:53:44.462Z,8.57
2019-05-07T05:55:57.219Z,8.90
2019-05-07T05:58:12.108Z,9.63
2019-05-07T06:00:42.301Z,8.90
2019-05-07T06:03:02.560Z,9.43
2019-05-07T06:05:34.250Z,8.77
2019-05-07T06:07:56.123Z,8.80
2019-05-07T06:10:14.883Z,8.30
2019-05-07T06:12:32.612Z,8.60
2019-05-07T06:14:45.123Z,8.43
2019-05-07T06:17:14.753Z,8.33
2019-05-07T06:19:27.504Z,9.10
2019-05-07T06:21:57.427Z,8.50
2019-05-07T06:24:12.890Z,8.33
2019-05-07T06:26:23.722Z,8.37
2019-05-07T06:28:34.581Z,8.20
2019-05-07T06:30:45.412Z,9.30
2019-05-07T06:32:56.373Z,8.67
2019-05-07T06:35:07.306Z,9.03
2019-05-07T06:37:18.158Z,8.40
2019-05-07T06:39:46.004Z,9.00
2019-05-07T06:42:15.623Z,8.43
2019-05-07T06:44:26.466Z,8.33
2019-05-07T06:46:38.815Z,9.20
2019-05-07T06:48:49.759Z,8.97
2019-05-07T06:51:02.889Z,8.70
2019-05-07T06:53:13.501Z,9.60
2019-05-07T06:55:24.334Z,9.30
2019-05-07T06:57:35.972Z,10.23
2019-05-07T06:59:48.734Z,10.07
2019-05-07T07:02:18.613Z,9.67
2019-05-07T07:04:33.133Z,10.23
2019-05-07T07:06:49.015Z,10.03
2019-05-07T07:09:18.574Z,10.23
2019-05-07T07:11:34.151Z,10.00
2019-05-07T07:13:45.125Z,9.33
2019-05-07T07:15:56.023Z,9.60
2019-05-07T07:18:06.828Z,9.97
2019-05-07T07:20:18.010Z,10.30
2019-05-07T07:22:28.947Z,8.80
2019-05-07T07:24:42.284Z,9.53
2019-05-07T07:26:53.023Z,8.73
2019-05-07T07:29:04.611Z,8.80
2019-05-07T07:31:26.091Z,8.57
2019-05-07T07:33:37.851Z,7.80
2019-05-07T07:35:48.793Z,8.00
2019-05-07T07:38:02.399Z,8.40
2019-05-07T07:40:15.918Z,9.93
2019-05-07T07:42:26.860Z,8.00
2019-05-07T07:44:37.727Z,8.27
2019-05-07T07:46:48.669Z,8.10
2019-05-07T07:49:07.883Z,8.60
2019-05-07T07:51:13.836Z,7.90
2019-05-07T07:53:24.955Z,8.47
2019-05-07T07:55:37.731Z,6.90
2019-05-07T07:58:08.752Z,7.60
2019-05-07T08:00:29.990Z,6.83
2019-05-07T08:02:42.787Z,6.37
2019-05-07T08:04:53.655Z,6.60
2019-05-07T08:07:04.499Z,6.83
2019-05-07T08:09:15.342Z,7.27
2019-05-07T08:11:26.295Z,7.00
2019-05-07T08:13:37.157Z,6.90
2019-05-07T08:15:48.152Z,6.70
2019-05-07T08:17:59.383Z,6.33
2019-05-07T08:20:12.804Z,6.87
2019-05-07T08:22:24.210Z,6.47
2019-05-07T08:24:35.157Z,6.67
2019-05-07T08:26:46.334Z,6.47
2019-05-07T08:28:57.167Z,5.97
2019-05-07T08:31:28.007Z,6.27
2019-05-07T08:33:43.927Z,6.37
2019-05-07T08:36:07.630Z,6.70
2019-05-07T08:38:18.473Z,5.93
2019-05-07T08:40:29.331Z,6.13
2019-05-07T08:42:41.896Z,6.57
2019-05-07T08:45:12.020Z,5.97
2019-05-07T08:47:27.676Z,5.50
2019-05-07T08:49:43.203Z,6.13
2019-05-07T08:51:59.345Z,6.00
2019-05-07T08:54:12.219Z,5.87
2019-05-07T08:56:23.184Z,6.03
2019-05-07T08:58:34.225Z,5.33
2019-05-07T09:00:45.199Z,6.60
2019-05-07T09:02:56.062Z,6.50
2019-05-07T09:05:09.209Z,5.97
2019-05-07T09:07:21.901Z,6.17
2019-05-07T09:09:32.913Z,5.80
2019-05-07T09:11:43.819Z,5.80
2019-05-07T09:13:54.758Z,6.20
2019-05-07T09:16:05.611Z,6.03
2019-05-07T09:18:16.491Z,5.60
2019-05-07T09:20:27.327Z,6.33
2019-05-07T09:22:38.204Z,5.43
2019-05-07T09:24:49.045Z,6.27
2019-05-07T09:27:02.754Z,6.60
2019-05-07T09:29:32.503Z,6.03
2019-05-07T09:31:48.286Z,6.40
2019-05-07T09:33:59.220Z,6.10
2019-05-07T09:36:12.237Z,6.47
2019-05-07T09:38:23.069Z,6.33
2019-05-07T09:40:33.910Z,5.47
2019-05-07T09:42:44.960Z,4.40
2019-05-07T09:44:55.797Z,4.40
2019-05-07T09:47:07.012Z,4.17
2019-05-07T09:49:17.937Z,4.07
2019-05-07T09:51:28.767Z,4.00
2019-05-07T09:53:39.652Z,3.77
2019-05-07T09:55:51.624Z,4.17
2019-05-07T09:58:02.835Z,4.30
2019-05-07T10:00:14.579Z,4.70
2019-05-07T10:02:25.524Z,5.60
2019-05-07T10:04:36.502Z,4.60
2019-05-07T10:06:48.053Z,4.40
2019-05-07T10:08:59.091Z,4.60
2019-05-07T10:11:12.228Z,4.30
2019-05-07T10:13:25.010Z,4.13
2019-05-07T10:15:36.071Z,5.03
2019-05-07T10:18:05.835Z,4.67
2019-05-07T10:20:22.186Z,5.50
2019-05-07T10:22:32.158Z,5.70
2019-05-07T10:24:43.331Z,5.27
2019-05-07T10:26:54.280Z,5.33
2019-05-07T10:29:05.261Z,5.80
2019-05-07T10:31:16.087Z,5.37
2019-05-07T10:33:27.088Z,5.20
2019-05-07T10:35:38.047Z,5.30
2019-05-07T10:37:49.014Z,5.77
2019-05-07T10:39:59.985Z,5.40
2019-05-07T10:42:12.371Z,5.47
2019-05-07T10:44:25.409Z,5.07
2019-05-07T10:46:54.732Z,4.93
2019-05-07T10:49:12.185Z,6.17
2019-05-07T10:51:23.607Z,5.50
2019-05-07T10:53:34.554Z,4.63
2019-05-07T10:55:45.747Z,4.47
2019-05-07T10:57:56.764Z,5.30
2019-05-07T11:00:09.672Z,5.43
2019-05-07T11:02:22.516Z,6.03
2019-05-07T11:04:42.615Z,5.90
2019-05-07T11:06:46.240Z,6.17
2019-05-07T11:08:57.099Z,5.73
2019-05-07T11:11:08.155Z,5.60
2019-05-07T11:13:19.005Z,6.30
2019-05-07T11:15:32.415Z,6.03
2019-05-07T11:17:56.777Z,5.97
2019-05-07T11:20:09.529Z,5.80
2019-05-07T11:22:22.139Z,5.97
2019-05-07T11:24:33.236Z,5.60
2019-05-07T11:26:44.189Z,5.77
2019-05-07T11:28:55.175Z,5.13
2019-05-07T11:31:06.337Z,5.43
2019-05-07T11:33:19.115Z,5.30
2019-05-07T11:35:31.897Z,4.87
2019-05-07T11:37:44.362Z,3.77
2019-05-07T11:39:55.424Z,4.27
2019-05-07T11:42:10.104Z,3.63
2019-05-07T11:44:23.093Z,3.90
2019-05-07T11:46:44.402Z,4.03
2019-05-07T11:48:56.798Z,3.90
2019-05-07T11:51:20.108Z,3.73
2019-05-07T11:53:35.876Z,4.50
2019-05-07T11:55:46.785Z,3.40
2019-05-07T11:57:57.741Z,3.67
2019-05-07T12:00:23.634Z,5.00
2019-05-07T12:02:34.648Z,4.23
2019-05-07T12:04:45.505Z,4.47
2019-05-07T12:06:56.460Z,4.20
2019-05-07T12:09:07.540Z,4.50
2019-05-07T12:11:18.512Z,4.20
2019-05-07T12:13:29.388Z,5.27
2019-05-07T12:15:40.363Z,4.70
2019-05-07T12:17:52.118Z,5.20
2019-05-07T12:20:04.183Z,4.90
2019-05-07T12:22:17.055Z,4.17
2019-05-07T12:24:27.937Z,4.60
2019-05-07T12:26:41.740Z,4.37
2019-05-07T12:28:52.835Z,5.70
2019-05-07T12:31:22.455Z,4.80
2019-05-07T12:33:44.547Z,5.53
2019-05-07T12:35:55.505Z,5.43
2019-05-07T12:38:06.357Z,4.77
2019-05-07T12:40:17.457Z,5.40
2019-05-07T12:42:28.298Z,5.77
2019-05-07T12:44:39.352Z,4.77
2019-05-07T12:46:52.310Z,4.83
2019-05-07T12:49:03.802Z,4.67
2019-05-07T12:51:14.742Z,4.57
2019-05-07T12:53:39.554Z,4.90
2019-05-07T12:55:52.362Z,4.97
2019-05-07T12:58:03.417Z,4.77
2019-05-07T13:00:34.385Z,3.97
2019-05-07T13:02:46.884Z,3.90
2019-05-07T13:04:58.248Z,4.30
2019-05-07T13:07:23.239Z,4.00
2019-05-07T13:09:34.223Z,4.57
2019-05-07T13:11:45.170Z,4.43
2019-05-07T13:13:56.059Z,4.43
2019-05-07T13:16:06.915Z,4.23
2019-05-07T13:18:17.770Z,4.63
2019-05-07T13:20:28.654Z,4.97
2019-05-07T13:22:39.579Z,5.10
2019-05-07T13:24:52.742Z,4.10
2019-05-07T13:27:03.510Z,4.00
2019-05-07T13:29:14.339Z,4.10
2019-05-07T13:31:27.670Z,4.50
2019-05-07T13:33:38.737Z,4.33
2019-05-07T13:35:52.073Z,3.73
2019-05-07T13:38:05.043Z,4.67
2019-05-07T13:40:31.516Z,4.30
2019-05-07T13:42:45.121Z,4.13
2019-05-07T13:44:58.694Z,4.80
2019-05-07T13:47:26.276Z,4.70
2019-05-07T13:49:37.249Z,4.83
2019-05-07T13:52:02.539Z,4.77
2019-05-07T13:54:02.097Z,5.13
2019-05-07T13:56:13.160Z,4.90
2019-05-07T13:58:24.094Z,4.73
2019-05-07T14:00:37.063Z,4.53
2019-05-07T14:02:48.038Z,4.60
2019-05-07T14:04:59.070Z,4.63
2019-05-07T14:07:12.506Z,4.87
2019-05-07T14:09:24.552Z,4.90
2019-05-07T14:11:35.548Z,4.47
2019-05-07T14:13:46.489Z,4.90
2019-05-07T14:16:12.060Z,4.43
2019-05-07T14:18:25.677Z,4.20
2019-05-07T14:20:35.954Z,4.20
2019-05-07T14:22:46.946Z,4.90
2019-05-07T14:24:57.777Z,5.20
2019-05-07T14:27:08.639Z,5.17
2019-05-07T14:29:19.586Z,4.37
2019-05-07T14:31:33.500Z,4.67
2019-05-07T14:33:45.126Z,4.90
2019-05-07T14:36:02.576Z,5.33
2019-05-07T14:38:15.451Z,5.57
2019-05-07T14:40:26.407Z,4.83
2019-05-07T14:42:39.178Z,5.00
2019-05-07T14:44:50.162Z,5.20
2019-05-07T14:47:02.378Z,6.07
2019-05-07T14:49:13.487Z,5.33
2019-05-07T14:51:24.479Z,5.63
2019-05-07T14:53:35.334Z,4.93
2019-05-07T14:55:46.305Z,4.93
2019-05-07T14:57:57.348Z,5.20
2019-05-07T15:00:09.013Z,4.60
2019-05-07T15:02:20.067Z,5.07
2019-05-07T15:04:31.226Z,5.03
2019-05-07T15:06:42.270Z,5.10
2019-05-07T15:08:53.254Z,4.93
2019-05-07T15:11:04.106Z,5.40
2019-05-07T15:13:15.114Z,4.73
2019-05-07T15:15:26.169Z,4.30
2019-05-07T15:17:52.463Z,4.47
2019-05-07T15:20:03.771Z,4.60
2019-05-07T15:22:22.459Z,5.30
2019-05-07T15:24:33.418Z,5.47
2019-05-07T15:26:45.661Z,4.60
2019-05-07T15:28:58.544Z,5.23
2019-05-07T15:31:12.267Z,5.23
2019-05-07T15:33:23.307Z,4.40
2019-05-07T15:35:34.192Z,4.93
2019-05-07T15:37:45.341Z,5.23
2019-05-07T15:39:56.342Z,4.77
2019-05-07T15:42:07.292Z,5.30
2019-05-07T15:44:18.397Z,4.40
2019-05-07T15:46:29.272Z,5.50
2019-05-07T15:48:41.897Z,5.77
2019-05-07T15:50:52.907Z,5.47
2019-05-07T15:53:08.646Z,5.17
2019-05-07T15:55:19.624Z,5.27
2019-05-07T15:57:32.768Z,4.47
2019-05-07T15:59:43.260Z,4.50
2019-05-07T16:02:02.922Z,4.97
2019-05-07T16:04:22.394Z,4.10
2019-05-07T16:06:26.704Z,4.93
2019-05-07T16:08:48.989Z,4.70
2019-05-07T16:10:58.345Z,5.47
2019-05-07T16:13:13.449Z,5.20
2019-05-07T16:15:23.978Z,5.33
2019-05-07T16:17:36.854Z,5.57
2019-05-07T16:19:47.797Z,4.53
2019-05-07T16:22:03.599Z,4.87
2019-05-07T16:24:13.239Z,5.13
2019-05-07T16:26:24.155Z,5.20
2019-05-07T16:28:35.022Z,4.73
2019-05-07T16:30:45.965Z,5.00
2019-05-07T16:32:56.980Z,4.30
2019-05-07T16:35:08.135Z,5.00
2019-05-07T16:37:19.026Z,4.73
2019-05-07T16:39:29.865Z,4.87
2019-05-07T16:41:42.231Z,4.87
2019-05-07T16:43:53.411Z,4.50
2019-05-07T16:46:04.416Z,5.30
2019-05-07T16:48:15.263Z,5.27
2019-05-07T16:50:26.103Z,5.10
2019-05-07T16:52:36.984Z,4.63
2019-05-07T16:54:47.916Z,5.03
2019-05-07T16:57:17.406Z,4.53
2019-05-07T16:59:28.283Z,5.33
2019-05-07T17:01:39.173Z,5.23
2019-05-07T17:03:52.218Z,4.93
2019-05-07T17:06:03.305Z,5.17
2019-05-07T17:08:16.086Z,5.07
2019-05-07T17:10:27.064Z,5.70
2019-05-07T17:12:41.753Z,4.70
2019-05-07T17:14:52.713Z,5.47
2019-05-07T17:17:03.571Z,2.87
2019-05-07T17:19:14.948Z,4.33
2019-05-07T17:21:26.000Z,3.90
2019-05-07T17:23:43.948Z,4.30
2019-05-07T17:25:49.654Z,4.13
2019-05-07T17:28:02.782Z,4.53
2019-05-07T17:30:13.400Z,4.17
2019-05-07T17:32:24.327Z,4.00
2019-05-07T17:34:35.193Z,4.33
2019-05-07T17:36:46.059Z,4.23
2019-05-07T17:38:57.021Z,4.10
2019-05-07T17:41:13.740Z,4.30
2019-05-07T17:43:21.923Z,3.93
2019-05-07T17:45:33.149Z,4.57
2019-05-07T17:47:44.109Z,4.43
2019-05-07T17:49:55.207Z,4.27
2019-05-07T17:52:06.168Z,5.00
2019-05-07T17:54:17.147Z,4.00
2019-05-07T17:56:28.022Z,3.80
2019-05-07T17:58:38.899Z,4.20
2019-05-07T18:00:52.909Z,4.30
2019-05-07T18:03:08.609Z,4.57
2019-05-07T18:05:19.740Z,4.43
2019-05-07T18:07:30.637Z,4.03
2019-05-07T18:09:42.418Z,3.70
2019-05-07T18:11:53.619Z,3.87
2019-05-07T18:14:04.484Z,4.30
2019-05-07T18:16:17.428Z,3.77
2019-05-07T18:18:28.293Z,3.77
2019-05-07T18:20:39.588Z,3.97
2019-05-07T18:22:52.149Z,3.60
2019-05-07T18:25:04.675Z,4.43
2019-05-07T18:27:17.442Z,4.23
2019-05-07T18:29:28.293Z,4.43
2019-05-07T18:31:57.969Z,4.90
2019-05-07T18:34:09.036Z,4.60
2019-05-07T18:36:20.019Z,4.23
2019-05-07T18:38:32.840Z,4.60
2019-05-07T18:40:43.869Z,4.73
2019-05-07T18:42:54.951Z,4.97
2019-05-07T18:45:06.164Z,4.53
2019-05-07T18:47:17.039Z,4.50
2019-05-07T18:49:27.933Z,4.70
2019-05-07T18:51:39.046Z,4.57
2019-05-07T18:53:51.813Z,4.37
2019-05-07T18:56:02.805Z,4.30
2019-05-07T18:58:13.640Z,3.73
2019-05-07T19:00:32.550Z,4.10
2019-05-07T19:02:43.523Z,4.73
2019-05-07T19:04:54.478Z,4.07
2019-05-07T19:07:05.483Z,4.50
2019-05-07T19:09:16.731Z,4.67
2019-05-07T19:11:27.722Z,4.87
2019-05-07T19:13:38.682Z,4.40
2019-05-07T19:15:49.748Z,4.37
2019-05-07T19:18:02.709Z,4.13
2019-05-07T19:20:13.795Z,3.80
2019-05-07T19:22:24.791Z,4.20
2019-05-07T19:24:45.301Z,4.47
2019-05-07T19:26:48.546Z,4.30
2019-05-07T19:28:59.644Z,3.93
2019-05-07T19:31:12.518Z,4.20
2019-05-07T19:33:26.982Z,4.50
2019-05-07T19:35:36.438Z,4.00
2019-05-07T19:37:47.437Z,4.17
2019-05-07T19:39:58.535Z,3.97
2019-05-07T19:42:09.531Z,4.90
2019-05-07T19:44:20.392Z,4.57
2019-05-07T19:46:31.239Z,4.03
2019-05-07T19:48:44.053Z,4.13
2019-05-07T19:50:54.919Z,4.47
2019-05-07T19:53:05.977Z,4.30
2019-05-07T19:55:17.056Z,4.77
2019-05-07T19:57:42.614Z,4.87
2019-05-07T19:59:53.730Z,4.20
2019-05-07T20:02:06.638Z,4.50
2019-05-07T20:04:17.520Z,4.67
2019-05-07T20:06:28.503Z,4.50
2019-05-07T20:08:39.522Z,4.13
2019-05-07T20:11:08.846Z,3.77
2019-05-07T20:13:19.934Z,4.60
2019-05-07T20:15:32.013Z,4.70
2019-05-07T20:17:43.660Z,4.50
2019-05-07T20:19:54.654Z,4.13
2019-05-07T20:22:05.719Z,4.57
2019-05-07T20:24:16.626Z,4.47
2019-05-07T20:26:27.564Z,5.40
2019-05-07T20:28:38.463Z,4.47
2019-05-07T20:30:49.345Z,4.47
2019-05-07T20:33:00.309Z,4.77
2019-05-07T20:35:11.488Z,4.20
2019-05-07T20:37:22.478Z,4.80
2019-05-07T20:39:33.449Z,4.93
2019-05-07T20:41:44.377Z,4.87
2019-05-07T20:43:55.257Z,5.40
2019-05-07T20:46:06.248Z,4.57
2019-05-07T20:48:17.267Z,5.47
2019-05-07T20:50:28.147Z,4.43
2019-05-07T20:52:39.116Z,4.10
2019-05-07T20:54:57.689Z,4.53
2019-05-07T20:57:13.071Z,4.17
2019-05-07T20:59:23.468Z,4.57
2019-05-07T21:01:34.552Z,4.30
2019-05-07T21:03:45.453Z,4.40
2019-05-07T21:05:56.441Z,5.23
2019-05-07T21:08:07.379Z,4.90
2019-05-07T21:10:18.240Z,5.13
2019-05-07T21:12:29.104Z,5.53
2019-05-07T21:14:41.791Z,4.93
2019-05-07T21:16:52.786Z,5.57
2019-05-07T21:19:03.747Z,5.07
2019-05-07T21:21:14.652Z,5.27
2019-05-07T21:23:25.524Z,5.00
2019-05-07T21:25:43.454Z,5.17
2019-05-07T21:27:49.157Z,5.03
2019-05-07T21:30:02.328Z,6.00
2019-05-07T21:32:13.063Z,5.40
2019-05-07T21:34:23.903Z,5.60
2019-05-07T21:36:34.987Z,5.53
2019-05-07T21:38:45.963Z,5.37
2019-05-07T21:40:57.050Z,5.47
2019-05-07T21:43:08.034Z,5.90
2019-05-07T21:45:18.917Z,6.33
2019-05-07T21:47:29.902Z,5.83
2019-05-07T21:49:42.852Z,5.73
2019-05-07T21:51:54.612Z,6.33
2019-05-07T21:54:07.482Z,6.23
2019-05-07T21:56:20.253Z,6.33
2019-05-07T21:58:32.991Z,5.93
2019-05-07T22:00:48.726Z,6.73
2019-05-07T22:03:02.008Z,6.10
2019-05-07T22:05:13.028Z,6.63
2019-05-07T22:07:23.982Z,6.33
2019-05-07T22:09:34.925Z,6.93
2019-05-07T22:11:45.801Z,5.97
2019-05-07T22:13:56.650Z,5.63
2019-05-07T22:16:07.505Z,6.80
2019-05-07T22:18:18.407Z,6.43
2019-05-07T22:20:29.261Z,7.00
2019-05-07T22:22:42.238Z,5.57
2019-05-07T22:24:53.214Z,6.27
2019-05-07T22:27:04.359Z,6.00
2019-05-07T22:29:15.300Z,6.40
2019-05-07T22:31:31.033Z,6.53
2019-05-07T22:33:44.049Z,6.53
2019-05-07T22:35:55.012Z,6.00
2019-05-07T22:38:05.998Z,6.27
2019-05-07T22:40:16.929Z,6.83
2019-05-07T22:42:27.833Z,5.77
2019-05-07T22:44:38.816Z,5.80
2019-05-07T22:46:49.731Z,6.47
2019-05-07T22:49:02.908Z,7.07
2019-05-07T22:51:13.428Z,6.90
2019-05-07T22:53:24.309Z,6.53
2019-05-07T22:55:35.160Z,6.20
2019-05-07T22:57:52.526Z,5.97
2019-05-07T23:00:05.917Z,5.63
2019-05-07T23:02:16.773Z,6.40
2019-05-07T23:04:27.642Z,6.53
2019-05-07T23:06:38.569Z,6.33
2019-05-07T23:08:49.422Z,7.00
2019-05-07T23:11:02.738Z,6.73
2019-05-07T23:13:13.269Z,6.87
2019-05-07T23:15:24.120Z,6.70
2019-05-07T23:17:34.955Z,6.90
2019-05-07T23:19:45.816Z,6.53
2019-05-07T23:21:56.649Z,6.73
2019-05-07T23:24:07.512Z,7.20
2019-05-07T23:26:18.362Z,6.63
2019-05-07T23:28:29.241Z,6.97
2019-05-07T23:30:42.400Z,7.07
2019-05-07T23:32:52.969Z,7.10
2019-05-07T23:35:03.913Z,8.00
2019-05-07T23:37:14.759Z,6.70
2019-05-07T23:39:42.858Z,7.00
2019-05-07T23:42:13.697Z,6.93
2019-05-07T23:44:24.645Z,7.17
2019-05-07T23:46:35.502Z,6.53
2019-05-07T23:48:46.345Z,6.67
2019-05-07T23:50:57.206Z,6.73
2019-05-07T23:53:08.059Z,7.97
2019-05-07T23:55:18.928Z,7.07
2019-05-07T23:57:32.351Z,6.70
2019-05-07T23:59:42.510Z,6.80
